createdAt,value
2023-05-15T00:00:21.625Z,97.8028
2023-05-15T00:01:37.729Z,97.8101
2023-05-15T00:13:15.214Z,97.8244
2023-05-15T00:14:15.927Z,97.8291
2023-05-15T00:15:17.142Z,97.8301
2023-05-15T00:16:19.922Z,97.8271
2023-05-15T00:17:20.364Z,97.8339
2023-05-15T00:18:20.480Z,97.8328
2023-05-15T00:19:22.698Z,97.8339
2023-05-15T00:37:16.094Z,97.8494
2023-05-15T00:38:18.163Z,97.8526
2023-05-15T00:39:18.304Z,97.8479
2023-05-15T00:42:24.802Z,97.8595
2023-05-15T00:43:25.399Z,97.8570
2023-05-15T01:01:49.427Z,97.8725
2023-05-15T01:02:51.611Z,97.8716
2023-05-15T01:03:52.750Z,97.8721
2023-05-15T01:04:54.021Z,97.8779
2023-05-15T01:05:55.233Z,97.8888
2023-05-15T01:06:55.792Z,97.8805
2023-05-15T01:07:56.968Z,97.8860
2023-05-15T01:08:58.066Z,97.8803
2023-05-15T01:09:59.701Z,97.8832
2023-05-15T01:11:02.279Z,97.8831
2023-05-15T01:12:03.135Z,97.8886
2023-05-15T01:13:04.487Z,97.8880
2023-05-15T01:14:06.707Z,97.8798
2023-05-15T01:15:08.876Z,97.8825
2023-05-15T01:16:10.262Z,97.8779
2023-05-15T01:20:16.386Z,97.8851
2023-05-15T01:29:24.980Z,97.8878
2023-05-15T01:30:25.620Z,97.8948
2023-05-15T01:31:26.187Z,97.8880
2023-05-15T01:32:26.717Z,97.8913
2023-05-15T01:33:27.697Z,97.8899
2023-05-15T01:34:29.483Z,97.8934
2023-05-15T01:35:31.365Z,97.8942
2023-05-15T01:36:31.690Z,97.8900
2023-05-15T01:37:33.368Z,97.8944
2023-05-15T01:38:35.420Z,97.8932
2023-05-15T01:39:37.369Z,97.8921
2023-05-15T01:40:38.432Z,97.8968
2023-05-15T01:41:39.270Z,97.9019
2023-05-15T01:42:39.427Z,97.9004
2023-05-15T01:43:39.603Z,97.8949
2023-05-15T01:45:42.136Z,97.9020
2023-05-15T01:46:45.131Z,97.8945
2023-05-15T01:50:49.840Z,97.9055
2023-05-15T01:51:50.725Z,97.9008
2023-05-15T01:52:51.714Z,97.8974
2023-05-15T01:53:54.307Z,97.9051
2023-05-15T01:54:54.085Z,97.9105
2023-05-15T01:55:56.200Z,97.9044
2023-05-15T01:59:01.461Z,97.9010
2023-05-15T02:00:03.132Z,97.9028
2023-05-15T02:01:05.428Z,97.9098
2023-05-15T02:02:07.011Z,97.9051
2023-05-15T02:03:08.306Z,97.9079
2023-05-15T02:08:14.784Z,97.9128
2023-05-15T02:09:16.518Z,97.9189
2023-05-15T02:10:17.698Z,97.9145
2023-05-15T02:11:18.865Z,97.9130
2023-05-15T02:22:29.446Z,97.9372
2023-05-15T02:23:29.639Z,97.9282
2023-05-15T02:24:30.795Z,97.9359
2023-05-15T02:26:33.163Z,97.9329
2023-05-15T02:27:35.268Z,97.9370
2023-05-15T02:28:35.939Z,97.9445
2023-05-15T02:29:37.337Z,97.9430
2023-05-15T02:30:37.138Z,97.9433
2023-05-15T02:33:41.913Z,97.9471
2023-05-15T02:34:43.849Z,97.9497
2023-05-15T02:36:46.218Z,97.9511
2023-05-15T02:37:46.676Z,97.9528
2023-05-15T02:38:46.641Z,97.9576
2023-05-15T02:50:01.840Z,97.9651
2023-05-15T02:56:07.847Z,97.9787
2023-05-15T02:57:09.727Z,97.9848
2023-05-15T02:58:10.517Z,97.9870
2023-05-15T02:59:11.147Z,97.9832
2023-05-15T03:00:11.767Z,97.9908
2023-05-15T03:01:12.490Z,97.9873
2023-05-15T03:04:17.323Z,97.9952
2023-05-15T03:05:18.622Z,97.9888
2023-05-15T03:07:22.665Z,97.9921
2023-05-15T03:08:25.495Z,97.9866
2023-05-15T03:12:28.762Z,97.9972
2023-05-15T03:20:35.811Z,98.0170
2023-05-15T03:21:36.700Z,98.0222
2023-05-15T03:22:38.431Z,98.0168
2023-05-15T03:35:28.706Z,98.0370
2023-05-15T03:36:30.154Z,98.0430
2023-05-15T03:37:31.242Z,98.0468
2023-05-15T03:38:32.712Z,98.0418
2023-05-15T03:39:32.932Z,98.0495
2023-05-15T03:40:35.445Z,98.0467
2023-05-15T03:41:36.594Z,98.0484
2023-05-15T03:42:38.607Z,98.0536
2023-05-15T03:43:38.402Z,98.0580
2023-05-15T03:47:43.891Z,98.0594
2023-05-15T03:48:43.845Z,98.0645
2023-05-15T03:49:45.714Z,98.0663
2023-05-15T03:50:46.886Z,98.0578
2023-05-15T03:51:48.405Z,98.0651
2023-05-15T03:52:49.547Z,98.0651
2023-05-15T03:53:51.104Z,98.0625
2023-05-15T03:54:52.547Z,98.0669
2023-05-15T03:55:52.921Z,98.0650
2023-05-15T03:56:54.311Z,98.0540
2023-05-15T03:57:56.054Z,98.0704
2023-05-15T03:58:56.904Z,98.0687
2023-05-15T03:59:58.838Z,98.0785
2023-05-15T04:00:59.866Z,98.0710
2023-05-15T04:03:03.521Z,98.0672
2023-05-15T04:11:11.818Z,98.0694
2023-05-15T04:12:12.573Z,98.0743
2023-05-15T04:14:13.844Z,98.0753
2023-05-15T04:15:14.127Z,98.0608
2023-05-15T04:16:15.410Z,98.0565
2023-05-15T04:17:16.424Z,98.0617
2023-05-15T04:18:17.862Z,98.0645
2023-05-15T04:19:18.067Z,98.0620
2023-05-15T04:21:19.480Z,98.0540
2023-05-15T04:39:38.867Z,97.9972
2023-05-15T04:40:40.969Z,97.9728
2023-05-15T04:41:41.572Z,97.9760
2023-05-15T04:43:46.495Z,97.9546
2023-05-15T04:54:56.818Z,97.8368
2023-05-15T04:55:56.965Z,97.8301
2023-05-15T05:02:03.317Z,97.7301
2023-05-15T05:03:03.622Z,97.7236
2023-05-15T05:04:05.682Z,97.6973
2023-05-15T05:05:07.777Z,97.6760
2023-05-15T05:06:07.891Z,97.6594
2023-05-15T05:07:09.504Z,97.6418
2023-05-15T05:08:11.713Z,97.6183
2023-05-15T05:18:22.034Z,97.3686
2023-05-15T05:19:22.267Z,97.3473
2023-05-15T05:20:24.533Z,97.3105
2023-05-15T05:21:24.923Z,97.2820
2023-05-15T05:33:39.666Z,96.9869
2023-05-15T05:34:39.727Z,96.9427
2023-05-15T05:35:40.833Z,96.9080
2023-05-15T05:36:42.739Z,96.8648
2023-05-15T05:37:43.519Z,96.8329
2023-05-15T05:38:45.471Z,96.7941
2023-05-15T05:39:46.238Z,96.7426
2023-05-15T05:40:48.304Z,96.6796
2023-05-15T05:41:50.577Z,96.6265
2023-05-15T05:44:54.515Z,96.5015
2023-05-15T05:45:55.994Z,96.4602
2023-05-15T05:49:02.891Z,96.2975
2023-05-15T05:50:03.986Z,96.2978
2023-05-15T05:51:04.011Z,96.2898
2023-05-15T05:53:06.635Z,96.2954
2023-05-15T05:54:07.198Z,96.2833
2023-05-15T05:55:07.289Z,96.2242
2023-05-15T05:56:07.413Z,96.1722
2023-05-15T05:57:10.267Z,96.1555
2023-05-15T06:08:19.981Z,96.3308
2023-05-15T06:09:20.238Z,96.3381
2023-05-15T06:10:22.512Z,96.3809
2023-05-15T06:11:25.909Z,96.3943
2023-05-15T06:12:25.347Z,96.3763
2023-05-15T06:13:26.953Z,96.4093
2023-05-15T06:14:28.259Z,96.4255
2023-05-15T06:15:28.859Z,96.4601
2023-05-15T06:16:29.389Z,96.4901
2023-05-15T06:17:31.429Z,96.5031
2023-05-15T06:18:31.868Z,96.5452
2023-05-15T06:19:34.073Z,96.5859
2023-05-15T06:21:38.410Z,96.5216
2023-05-15T06:36:59.878Z,95.9250
2023-05-15T06:40:58.856Z,95.9148
2023-05-15T06:41:59.299Z,95.8929
2023-05-15T06:42:59.508Z,95.8400
2023-05-15T06:45:13.289Z,95.7347
2023-05-15T07:09:16.274Z,94.8088
2023-05-15T07:10:17.450Z,94.6915
2023-05-15T07:11:20.376Z,94.6075
2023-05-15T07:15:21.379Z,94.4937
2023-05-15T07:25:30.648Z,93.0985
2023-05-15T07:26:46.605Z,92.9802
2023-05-15T07:28:32.374Z,93.1088
2023-05-15T07:29:34.293Z,93.3785
2023-05-15T07:30:36.070Z,93.6517
2023-05-15T07:32:38.757Z,94.2415
2023-05-15T07:33:40.330Z,94.0008
2023-05-15T07:34:41.090Z,93.7764
2023-05-15T07:35:41.301Z,94.2085
2023-05-15T07:45:51.014Z,94.9339
2023-05-15T07:46:52.148Z,95.1205
2023-05-15T07:47:53.985Z,95.2640
2023-05-15T07:55:00.085Z,95.7958
2023-05-15T08:14:22.757Z,95.2723
2023-05-15T08:15:24.166Z,95.1590
2023-05-15T08:20:28.918Z,94.4149
2023-05-15T08:21:29.703Z,94.1454
2023-05-15T08:22:29.942Z,93.9654
2023-05-15T08:23:31.269Z,93.7522
2023-05-15T08:35:43.935Z,91.7655
2023-05-15T08:36:45.470Z,91.9863
2023-05-15T08:38:46.906Z,91.7692
2023-05-15T08:45:51.015Z,90.9449
2023-05-15T08:46:51.689Z,90.4891
2023-05-15T08:52:56.962Z,90.1228
2023-05-15T08:53:57.514Z,89.5799
2023-05-15T08:54:59.181Z,89.5139
2023-05-15T08:55:59.699Z,90.2350
2023-05-15T08:58:01.138Z,90.5846
2023-05-15T09:00:04.784Z,90.1675
2023-05-15T09:01:04.272Z,89.7960
2023-05-15T09:03:07.601Z,88.8410
2023-05-15T09:04:07.838Z,89.1741
2023-05-15T09:06:10.915Z,88.2482
2023-05-15T09:07:12.795Z,88.2695
2023-05-15T09:08:14.412Z,87.3434
2023-05-15T09:09:16.138Z,88.4151
2023-05-15T09:11:18.744Z,88.4116
2023-05-15T09:27:11.630Z,92.5142
2023-05-15T09:28:12.546Z,92.6068
2023-05-15T09:30:14.816Z,92.3473
2023-05-15T09:31:15.157Z,92.3700
2023-05-15T09:33:18.410Z,92.8919
2023-05-15T09:34:19.081Z,92.9958
2023-05-15T09:35:23.785Z,93.0979
2023-05-15T09:36:22.487Z,93.1492
2023-05-15T09:37:23.635Z,93.4227
2023-05-15T09:39:25.456Z,93.6414
2023-05-15T09:42:27.904Z,93.2746
2023-05-15T09:45:31.811Z,93.4677
2023-05-15T09:49:34.713Z,94.1086
2023-05-15T09:58:40.962Z,92.4264
2023-05-15T10:08:49.972Z,88.3409
2023-05-15T10:09:51.696Z,85.8895
2023-05-15T10:46:39.131Z,84.0252
2023-05-15T10:47:39.495Z,84.2579
2023-05-15T10:48:41.198Z,83.0247
2023-05-15T11:06:25.940Z,89.1356
2023-05-15T11:08:27.307Z,88.7801
2023-05-15T11:28:23.650Z,81.6490
2023-05-15T11:29:24.583Z,82.5654
2023-05-15T11:30:27.722Z,83.0633
2023-05-15T11:31:28.493Z,82.6880
2023-05-15T11:32:29.814Z,82.0344
2023-05-15T11:33:30.760Z,81.7043
2023-05-15T11:34:30.850Z,83.9123
2023-05-15T11:37:06.393Z,86.9371
2023-05-15T11:43:02.742Z,86.2305
2023-05-15T11:50:44.502Z,79.7866
2023-05-15T13:12:24.835Z,77.1567
2023-05-15T13:26:46.875Z,73.1319
2023-05-15T13:28:48.624Z,74.6297
2023-05-15T13:29:49.810Z,72.5927
2023-05-15T13:30:50.415Z,74.5572
2023-05-15T13:42:47.025Z,72.6112
2023-05-15T13:43:47.061Z,73.4074
2023-05-15T13:44:47.762Z,71.7644
2023-05-15T13:45:48.173Z,66.3689
2023-05-15T13:46:50.200Z,68.1957
2023-05-15T13:47:51.153Z,68.6217
2023-05-15T13:48:51.321Z,67.7856
2023-05-15T13:49:53.432Z,71.7891
2023-05-15T13:51:54.475Z,72.7192
2023-05-15T13:52:56.502Z,69.6000
2023-05-15T13:54:00.130Z,66.6846
2023-05-15T14:16:59.528Z,70.0095
2023-05-15T14:18:02.114Z,74.9140
2023-05-15T14:24:06.114Z,75.1467
2023-05-15T14:34:06.661Z,77.6452
2023-05-15T14:36:08.314Z,81.3386
2023-05-15T14:50:24.516Z,84.9107
2023-05-15T14:51:26.642Z,87.3641
2023-05-15T14:52:27.015Z,84.6884
2023-05-15T14:54:29.674Z,86.8537
2023-05-15T14:55:32.345Z,87.5667
2023-05-15T14:56:32.664Z,86.8260
2023-05-15T14:58:35.407Z,86.3507
2023-05-15T14:59:35.841Z,88.5569
2023-05-15T15:01:38.408Z,89.4173
2023-05-15T15:03:40.879Z,89.9799
2023-05-15T15:04:41.294Z,89.8640
2023-05-15T15:22:00.711Z,89.6258
2023-05-15T15:23:03.203Z,89.5901
2023-05-15T15:24:04.946Z,88.1858
2023-05-15T15:25:05.975Z,87.4636
2023-05-15T15:27:06.900Z,87.0641
2023-05-15T15:38:55.494Z,86.3919
2023-05-15T15:39:55.472Z,85.4697
2023-05-15T15:40:55.562Z,86.2831
2023-05-15T15:45:59.795Z,86.5780
2023-05-15T15:48:02.424Z,86.8210
2023-05-15T15:59:28.632Z,87.1357
2023-05-15T16:00:28.439Z,87.0256
2023-05-15T16:13:41.601Z,87.9728
2023-05-15T16:14:42.331Z,87.9988
2023-05-15T16:15:43.992Z,88.5379
2023-05-15T16:16:45.222Z,87.5806
2023-05-15T16:25:35.366Z,85.5598
2023-05-15T16:26:36.688Z,85.6339
2023-05-15T16:27:38.104Z,84.8554
2023-05-15T16:28:37.636Z,84.7225
2023-05-15T16:29:39.354Z,85.0827
2023-05-15T16:30:49.394Z,85.3164
2023-05-15T16:35:17.027Z,82.2578
2023-05-15T16:36:17.677Z,82.1873
2023-05-15T16:37:19.400Z,82.3553
2023-05-15T16:38:21.114Z,82.1375
2023-05-15T16:39:23.374Z,80.1056
2023-05-15T16:57:37.886Z,81.7277
2023-05-15T16:58:39.102Z,81.1039
2023-05-15T16:59:39.591Z,82.1842
2023-05-15T17:00:42.295Z,82.7485
2023-05-15T17:01:43.609Z,82.8234
2023-05-15T17:02:44.714Z,82.6497
2023-05-15T17:04:46.969Z,81.7930
2023-05-15T17:05:48.300Z,82.3134
2023-05-15T17:07:49.466Z,82.9420
2023-05-15T17:08:49.718Z,82.7712
2023-05-15T17:11:56.758Z,81.9859
2023-05-15T17:28:16.008Z,78.3861
2023-05-15T17:39:28.601Z,67.3227
2023-05-15T17:40:30.107Z,67.9654
2023-05-15T17:41:31.960Z,67.8048
2023-05-15T17:42:33.649Z,70.0376
2023-05-15T17:43:34.077Z,72.2921
2023-05-15T17:44:33.946Z,74.0388
2023-05-15T17:45:35.986Z,74.6097
2023-05-15T17:46:37.167Z,77.2409
2023-05-15T17:47:50.166Z,77.1664
2023-05-15T17:49:10.230Z,78.4974
2023-05-15T17:50:10.873Z,79.2242
2023-05-15T17:51:12.294Z,78.8081
2023-05-15T17:52:19.642Z,79.8363
2023-05-15T17:53:14.740Z,79.7153
2023-05-15T17:54:16.574Z,80.5131
2023-05-15T17:55:18.091Z,81.5316
2023-05-15T17:56:18.667Z,82.5556
2023-05-15T17:57:20.101Z,83.2327
2023-05-15T17:58:20.566Z,82.9211
2023-05-15T18:10:31.525Z,86.2614
2023-05-15T18:11:32.099Z,86.0633
2023-05-15T18:12:32.533Z,86.5862
2023-05-15T18:13:33.175Z,86.8056
2023-05-15T18:14:33.655Z,85.7159
2023-05-15T18:15:34.794Z,85.3846
2023-05-15T18:17:37.130Z,86.9034
2023-05-15T18:18:37.334Z,87.3706
2023-05-15T18:19:37.663Z,87.2914
2023-05-15T18:30:21.014Z,89.6485
2023-05-15T18:31:23.796Z,89.9839
2023-05-15T18:32:23.973Z,90.2867
2023-05-15T18:33:24.017Z,90.7057
2023-05-15T18:34:25.572Z,90.9859
2023-05-15T18:35:28.177Z,91.3886
2023-05-15T18:36:28.117Z,91.5512
2023-05-15T18:37:28.744Z,91.6962
2023-05-15T18:38:29.345Z,91.9042
2023-05-15T18:39:30.816Z,92.1790
2023-05-15T18:40:32.312Z,92.3924
2023-05-15T18:41:34.658Z,92.5504
2023-05-15T18:42:35.035Z,92.7593
2023-05-15T18:43:37.186Z,92.7780
2023-05-15T18:44:38.826Z,92.8485
2023-05-15T18:45:39.143Z,93.0297
2023-05-15T18:46:40.613Z,93.1572
2023-05-15T18:47:41.744Z,93.1934
2023-05-15T18:48:42.326Z,93.2658
2023-05-15T18:49:42.502Z,93.3313
2023-05-15T18:50:44.254Z,93.3660
2023-05-15T18:51:45.639Z,93.3906
2023-05-15T18:52:47.348Z,93.4123
2023-05-15T18:53:47.760Z,93.4449
2023-05-15T18:54:49.749Z,93.4680
2023-05-15T18:59:25.060Z,93.4866
2023-05-15T19:00:38.152Z,93.5127
2023-05-15T19:06:01.458Z,93.8805
2023-05-15T19:07:03.424Z,93.9565
2023-05-15T19:09:06.134Z,93.6990
2023-05-15T19:10:08.468Z,93.0804
2023-05-15T19:11:09.042Z,92.3922
2023-05-15T19:12:09.768Z,91.9445
2023-05-15T19:13:09.869Z,91.6606
2023-05-15T19:14:10.999Z,91.6427
2023-05-15T19:15:11.931Z,91.4161
2023-05-15T19:17:14.637Z,90.4274
2023-05-15T19:18:15.598Z,89.7849
2023-05-15T19:19:16.574Z,89.0329
2023-05-15T19:21:17.848Z,87.6552
2023-05-15T19:22:17.728Z,87.6274
2023-05-15T19:36:35.758Z,86.3857
2023-05-15T19:37:35.831Z,86.2359
2023-05-15T19:38:37.595Z,86.4127
2023-05-15T19:39:39.379Z,85.5889
2023-05-15T19:40:41.410Z,84.5492
2023-05-15T19:41:49.114Z,83.8839
2023-05-15T19:49:23.470Z,88.9862
2023-05-15T20:01:37.839Z,92.9831
2023-05-15T20:12:53.025Z,94.2226
2023-05-15T20:13:53.189Z,94.2350
2023-05-15T20:14:55.086Z,94.2528
2023-05-15T20:15:56.699Z,94.2975
2023-05-15T20:16:58.139Z,94.3933
2023-05-15T20:17:58.061Z,94.4816
2023-05-15T20:35:24.005Z,95.6497
2023-05-15T20:36:24.396Z,95.6828
2023-05-15T20:37:25.444Z,95.6980
2023-05-15T20:38:27.313Z,95.7187
2023-05-15T20:39:27.376Z,95.7277
2023-05-15T20:40:29.207Z,95.7565
2023-05-15T20:42:31.996Z,95.8201
2023-05-15T20:43:32.520Z,95.8579
2023-05-15T20:44:33.297Z,95.8909
2023-05-15T20:45:35.842Z,95.9251
2023-05-15T20:46:36.410Z,95.9609
2023-05-15T20:47:37.637Z,96.0008
2023-05-15T20:48:39.895Z,96.0353
2023-05-15T20:49:40.070Z,96.0631
2023-05-15T20:50:40.199Z,96.0955
2023-05-15T20:51:41.468Z,96.1218
2023-05-15T20:52:41.980Z,96.1452
2023-05-15T20:53:42.576Z,96.1682
2023-05-15T20:55:46.317Z,96.2031
2023-05-15T20:58:47.458Z,96.2556
2023-05-15T21:00:49.079Z,96.2949
2023-05-15T21:01:49.175Z,96.3097
2023-05-15T21:06:51.358Z,96.3761
2023-05-15T21:07:52.951Z,96.3969
2023-05-15T21:08:54.139Z,96.3951
2023-05-15T21:09:55.028Z,96.4115
2023-05-15T21:10:57.032Z,96.4209
2023-05-15T21:11:57.136Z,96.4329
2023-05-15T21:12:59.866Z,96.4397
2023-05-15T21:13:59.740Z,96.4448
2023-05-15T21:18:05.011Z,96.4734
2023-05-15T21:19:06.435Z,96.4891
2023-05-15T21:20:09.012Z,96.4897
2023-05-15T21:21:09.189Z,96.4956
2023-05-15T21:22:10.892Z,96.5058
2023-05-15T21:24:12.359Z,96.5294
2023-05-15T21:25:13.804Z,96.5223
2023-05-15T21:40:31.756Z,96.6296
2023-05-15T21:41:33.201Z,96.6326
2023-05-15T21:42:35.742Z,96.6423
2023-05-15T21:43:36.523Z,96.6516
2023-05-15T21:44:36.716Z,96.6496
2023-05-15T21:45:37.900Z,96.6628
2023-05-15T21:46:37.986Z,96.6614
2023-05-15T21:47:38.616Z,96.6651
2023-05-15T21:50:42.449Z,96.6834
2023-05-15T21:51:44.470Z,96.6915
2023-05-15T21:53:47.807Z,96.7052
2023-05-15T21:54:48.120Z,96.7071
2023-05-15T21:55:49.365Z,96.7053
2023-05-15T21:57:52.350Z,96.7293
2023-05-15T21:58:52.589Z,96.7305
2023-05-15T22:00:55.351Z,96.7381
2023-05-15T22:01:56.696Z,96.7485
2023-05-15T22:02:57.730Z,96.7575
2023-05-15T22:04:00.200Z,96.7584
2023-05-15T22:05:01.437Z,96.7716
2023-05-15T22:06:02.781Z,96.7714
2023-05-15T22:07:03.955Z,96.7771
2023-05-15T22:08:06.032Z,96.7770
2023-05-15T22:09:07.394Z,96.7914
2023-05-15T22:10:09.139Z,96.7917
2023-05-15T22:13:14.590Z,96.7960
2023-05-15T22:14:15.202Z,96.7903
2023-05-15T22:15:17.689Z,96.7908
2023-05-15T22:16:20.108Z,96.7916
2023-05-15T22:19:32.994Z,96.7879
2023-05-15T22:23:25.804Z,96.7855
2023-05-15T22:24:26.893Z,96.7894
2023-05-15T22:34:03.107Z,96.8300
2023-05-15T22:46:15.505Z,96.8883
2023-05-15T22:47:15.855Z,96.8969
2023-05-15T22:49:18.295Z,96.9219
2023-05-15T22:50:20.525Z,96.9286
2023-05-15T22:51:20.565Z,96.9406
2023-05-15T22:52:21.672Z,96.9492
2023-05-15T22:53:24.164Z,96.9557
2023-05-15T22:54:24.856Z,96.9687
2023-05-15T22:55:25.367Z,96.9706
2023-05-15T23:12:42.546Z,97.0727
2023-05-15T23:13:44.782Z,97.0899
2023-05-15T23:14:46.261Z,97.0975
2023-05-15T23:16:48.905Z,97.0973
2023-05-15T23:17:50.505Z,97.1121
2023-05-15T23:18:51.416Z,97.1206
2023-05-15T23:20:54.297Z,97.1273
2023-05-15T23:30:05.382Z,97.1829
2023-05-15T23:31:06.201Z,97.1916
2023-05-15T23:34:09.882Z,97.2038
2023-05-15T23:35:11.420Z,97.2150
2023-05-15T23:36:13.784Z,97.2199
2023-05-15T23:54:35.337Z,97.3279
2023-05-15T23:55:37.423Z,97.3363
2023-05-15T23:56:38.822Z,97.3385
2023-05-15T23:57:40.285Z,97.3347
2023-05-15T23:59:45.575Z,97.3397
